sensor_id;sensor_type;location;lat;lon;timestamp;temperature;humidity
11087;DHT22;5597;47.588;9.642;2023-08-08T00:00:09;12.40;99.90
11087;DHT22;5597;47.588;9.642;2023-08-08T00:02:36;12.40;99.90
11087;DHT22;5597;47.588;9.642;2023-08-08T00:05:01;12.40;99.90
11087;DHT22;5597;47.588;9.642;2023-08-08T00:07:27;12.30;99.90
11087;DHT22;5597;47.588;9.642;2023-08-08T00:09:56;12.30;99.90
11087;DHT22;5597;47.588;9.642;2023-08-08T00:12:21;12.30;99.90
11087;DHT22;5597;47.588;9.642;2023-08-08T00:14:47;12.20;99.90
11087;DHT22;5597;47.588;9.642;2023-08-08T00:17:13;12.20;99.90
11087;DHT22;5597;47.588;9.642;2023-08-08T00:19:39;12.20;99.90
11087;DHT22;5597;47.588;9.642;2023-08-08T00:22:04;12.20;99.90
11087;DHT22;5597;47.588;9.642;2023-08-08T00:24:31;12.20;99.90
11087;DHT22;5597;47.588;9.642;2023-08-08T00:26:57;12.10;99.90
11087;DHT22;5597;47.588;9.642;2023-08-08T00:29:23;12.10;99.90
11087;DHT22;5597;47.588;9.642;2023-08-08T00:31:48;12.10;99.90
11087;DHT22;5597;47.588;9.642;2023-08-08T00:34:14;12.10;99.90
11087;DHT22;5597;47.588;9.642;2023-08-08T00:36:40;12.10;99.90
11087;DHT22;5597;47.588;9.642;2023-08-08T00:39:05;12.10;99.90
11087;DHT22;5597;47.588;9.642;2023-08-08T00:41:31;12.10;99.90
11087;DHT22;5597;47.588;9.642;2023-08-08T00:43:57;12.00;99.90
11087;DHT22;5597;47.588;9.642;2023-08-08T00:46:22;12.00;99.90
11087;DHT22;5597;47.588;9.642;2023-08-08T00:48:51;12.00;99.90
11087;DHT22;5597;47.588;9.642;2023-08-08T00:51:17;12.00;99.90
11087;DHT22;5597;47.588;9.642;2023-08-08T00:53:44;12.00;99.90
11087;DHT22;5597;47.588;9.642;2023-08-08T00:56:12;12.00;99.90
11087;DHT22;5597;47.588;9.642;2023-08-08T00:58:39;11.90;99.90
11087;DHT22;5597;47.588;9.642;2023-08-08T01:01:05;11.90;99.90
11087;DHT22;5597;47.588;9.642;2023-08-08T01:03:31;11.90;99.90
11087;DHT22;5597;47.588;9.642;2023-08-08T01:06:05;11.90;99.90
11087;DHT22;5597;47.588;9.642;2023-08-08T01:08:39;11.90;99.90
11087;DHT22;5597;47.588;9.642;2023-08-08T01:11:08;11.90;99.90
11087;DHT22;5597;47.588;9.642;2023-08-08T01:13:35;11.90;99.90
11087;DHT22;5597;47.588;9.642;2023-08-08T01:16:03;11.90;99.90
11087;DHT22;5597;47.588;9.642;2023-08-08T01:18:32;11.90;99.90
11087;DHT22;5597;47.588;9.642;2023-08-08T01:20:58;11.90;99.90
11087;DHT22;5597;47.588;9.642;2023-08-08T01:23:34;11.90;99.90
11087;DHT22;5597;47.588;9.642;2023-08-08T01:26:06;11.90;99.90
11087;DHT22;5597;47.588;9.642;2023-08-08T01:28:34;11.90;99.90
11087;DHT22;5597;47.588;9.642;2023-08-08T01:31:00;11.90;99.90
11087;DHT22;5597;47.588;9.642;2023-08-08T01:33:25;11.90;99.90
11087;DHT22;5597;47.588;9.642;2023-08-08T01:35:55;11.90;99.90
11087;DHT22;5597;47.588;9.642;2023-08-08T01:38:41;11.90;99.90
11087;DHT22;5597;47.588;9.642;2023-08-08T01:41:09;11.90;99.90
11087;DHT22;5597;47.588;9.642;2023-08-08T01:43:37;11.90;99.90
11087;DHT22;5597;47.588;9.642;2023-08-08T01:46:04;11.80;99.90
11087;DHT22;5597;47.588;9.642;2023-08-08T01:48:31;11.80;99.90
11087;DHT22;5597;47.588;9.642;2023-08-08T01:50:56;11.80;99.90
11087;DHT22;5597;47.588;9.642;2023-08-08T01:53:22;11.80;99.90
11087;DHT22;5597;47.588;9.642;2023-08-08T01:55:48;11.80;99.90
11087;DHT22;5597;47.588;9.642;2023-08-08T01:58:13;11.80;99.90
11087;DHT22;5597;47.588;9.642;2023-08-08T02:00:39;11.70;99.90
11087;DHT22;5597;47.588;9.642;2023-08-08T02:03:06;11.70;99.90
11087;DHT22;5597;47.588;9.642;2023-08-08T02:05:32;11.60;99.90
11087;DHT22;5597;47.588;9.642;2023-08-08T02:07:58;11.60;99.90
11087;DHT22;5597;47.588;9.642;2023-08-08T02:10:23;11.60;99.90
11087;DHT22;5597;47.588;9.642;2023-08-08T02:12:49;11.50;99.90
11087;DHT22;5597;47.588;9.642;2023-08-08T02:15:15;11.50;99.90
11087;DHT22;5597;47.588;9.642;2023-08-08T02:17:40;11.50;99.90
11087;DHT22;5597;47.588;9.642;2023-08-08T02:20:07;11.50;99.90
11087;DHT22;5597;47.588;9.642;2023-08-08T02:22:33;11.50;99.90
11087;DHT22;5597;47.588;9.642;2023-08-08T02:24:59;11.50;99.90
11087;DHT22;5597;47.588;9.642;2023-08-08T02:27:25;11.50;99.90
11087;DHT22;5597;47.588;9.642;2023-08-08T02:29:50;11.50;99.90
11087;DHT22;5597;47.588;9.642;2023-08-08T02:32:16;11.40;99.90
11087;DHT22;5597;47.588;9.642;2023-08-08T02:34:42;11.40;99.90
11087;DHT22;5597;47.588;9.642;2023-08-08T02:37:08;11.40;99.90
11087;DHT22;5597;47.588;9.642;2023-08-08T02:39:34;11.40;99.90
11087;DHT22;5597;47.588;9.642;2023-08-08T02:41:59;11.40;99.90
11087;DHT22;5597;47.588;9.642;2023-08-08T02:44:25;11.40;99.90
11087;DHT22;5597;47.588;9.642;2023-08-08T02:46:51;11.40;99.90
11087;DHT22;5597;47.588;9.642;2023-08-08T02:49:16;11.40;99.90
11087;DHT22;5597;47.588;9.642;2023-08-08T02:51:42;11.40;99.90
11087;DHT22;5597;47.588;9.642;2023-08-08T02:54:07;11.30;99.90
11087;DHT22;5597;47.588;9.642;2023-08-08T02:56:33;11.30;99.90
11087;DHT22;5597;47.588;9.642;2023-08-08T02:58:59;11.30;99.90
11087;DHT22;5597;47.588;9.642;2023-08-08T03:01:24;11.30;99.90
11087;DHT22;5597;47.588;9.642;2023-08-08T03:03:53;11.30;99.90
11087;DHT22;5597;47.588;9.642;2023-08-08T03:06:19;11.30;99.90
11087;DHT22;5597;47.588;9.642;2023-08-08T03:08:44;11.30;99.90
11087;DHT22;5597;47.588;9.642;2023-08-08T03:11:10;11.30;99.90
11087;DHT22;5597;47.588;9.642;2023-08-08T03:13:35;11.20;99.90
11087;DHT22;5597;47.588;9.642;2023-08-08T03:16:03;11.20;99.90
11087;DHT22;5597;47.588;9.642;2023-08-08T03:18:28;11.20;99.90
11087;DHT22;5597;47.588;9.642;2023-08-08T03:20:54;11.20;99.90
11087;DHT22;5597;47.588;9.642;2023-08-08T03:23:20;11.20;99.90
11087;DHT22;5597;47.588;9.642;2023-08-08T03:25:45;11.10;99.90
11087;DHT22;5597;47.588;9.642;2023-08-08T03:28:11;11.10;99.90
11087;DHT22;5597;47.588;9.642;2023-08-08T03:30:37;11.10;99.90
11087;DHT22;5597;47.588;9.642;2023-08-08T03:33:04;11.10;99.90
11087;DHT22;5597;47.588;9.642;2023-08-08T03:35:30;11.10;99.90
11087;DHT22;5597;47.588;9.642;2023-08-08T03:37:55;11.00;99.90
11087;DHT22;5597;47.588;9.642;2023-08-08T03:40:21;11.00;99.90
11087;DHT22;5597;47.588;9.642;2023-08-08T03:42:47;11.00;99.90
11087;DHT22;5597;47.588;9.642;2023-08-08T03:45:12;11.00;99.90
11087;DHT22;5597;47.588;9.642;2023-08-08T03:47:38;10.90;99.90
11087;DHT22;5597;47.588;9.642;2023-08-08T03:50:06;10.90;99.90
11087;DHT22;5597;47.588;9.642;2023-08-08T03:52:32;10.90;99.90
11087;DHT22;5597;47.588;9.642;2023-08-08T03:55:01;10.90;99.90
11087;DHT22;5597;47.588;9.642;2023-08-08T03:57:26;10.90;99.90
11087;DHT22;5597;47.588;9.642;2023-08-08T03:59:52;10.80;99.90
11087;DHT22;5597;47.588;9.642;2023-08-08T04:02:18;10.80;99.90
11087;DHT22;5597;47.588;9.642;2023-08-08T04:04:43;10.80;99.90
11087;DHT22;5597;47.588;9.642;2023-08-08T04:07:09;10.70;99.90
11087;DHT22;5597;47.588;9.642;2023-08-08T04:09:35;10.70;99.90
11087;DHT22;5597;47.588;9.642;2023-08-08T04:12:00;10.70;99.90
11087;DHT22;5597;47.588;9.642;2023-08-08T04:14:26;10.70;99.90
11087;DHT22;5597;47.588;9.642;2023-08-08T04:16:52;10.70;99.90
11087;DHT22;5597;47.588;9.642;2023-08-08T04:19:17;10.70;99.90
11087;DHT22;5597;47.588;9.642;2023-08-08T04:21:43;10.70;99.90
11087;DHT22;5597;47.588;9.642;2023-08-08T04:24:09;10.70;99.90
11087;DHT22;5597;47.588;9.642;2023-08-08T04:26:35;10.70;99.90
11087;DHT22;5597;47.588;9.642;2023-08-08T04:29:00;10.70;99.90
11087;DHT22;5597;47.588;9.642;2023-08-08T04:31:26;10.60;99.90
11087;DHT22;5597;47.588;9.642;2023-08-08T04:33:52;10.60;99.90
11087;DHT22;5597;47.588;9.642;2023-08-08T04:36:23;10.60;99.90
11087;DHT22;5597;47.588;9.642;2023-08-08T04:38:49;10.60;99.90
11087;DHT22;5597;47.588;9.642;2023-08-08T04:41:15;10.60;99.90
11087;DHT22;5597;47.588;9.642;2023-08-08T04:43:40;10.60;99.90
11087;DHT22;5597;47.588;9.642;2023-08-08T04:46:06;10.60;99.90
11087;DHT22;5597;47.588;9.642;2023-08-08T04:48:32;10.70;99.90
11087;DHT22;5597;47.588;9.642;2023-08-08T04:50:58;10.70;99.90
11087;DHT22;5597;47.588;9.642;2023-08-08T04:53:23;10.70;99.90
11087;DHT22;5597;47.588;9.642;2023-08-08T04:55:49;10.70;99.90
11087;DHT22;5597;47.588;9.642;2023-08-08T04:58:15;10.70;99.90
11087;DHT22;5597;47.588;9.642;2023-08-08T05:00:40;10.70;99.90
11087;DHT22;5597;47.588;9.642;2023-08-08T05:03:06;10.80;99.90
11087;DHT22;5597;47.588;9.642;2023-08-08T05:05:32;10.90;99.90
11087;DHT22;5597;47.588;9.642;2023-08-08T05:07:58;10.90;99.90
11087;DHT22;5597;47.588;9.642;2023-08-08T05:10:23;11.00;99.90
11087;DHT22;5597;47.588;9.642;2023-08-08T05:12:49;11.20;99.90
11087;DHT22;5597;47.588;9.642;2023-08-08T05:15:15;11.30;99.90
11087;DHT22;5597;47.588;9.642;2023-08-08T05:17:40;11.40;99.90
11087;DHT22;5597;47.588;9.642;2023-08-08T05:20:06;11.50;99.90
11087;DHT22;5597;47.588;9.642;2023-08-08T05:22:33;11.60;99.90
11087;DHT22;5597;47.588;9.642;2023-08-08T05:24:59;11.70;99.90
11087;DHT22;5597;47.588;9.642;2023-08-08T05:27:24;11.80;99.90
11087;DHT22;5597;47.588;9.642;2023-08-08T05:29:50;11.90;99.90
11087;DHT22;5597;47.588;9.642;2023-08-08T05:32:15;12.00;99.90
11087;DHT22;5597;47.588;9.642;2023-08-08T05:34:41;12.10;99.90
11087;DHT22;5597;47.588;9.642;2023-08-08T05:37:07;12.10;99.90
11087;DHT22;5597;47.588;9.642;2023-08-08T05:39:32;12.20;99.90
11087;DHT22;5597;47.588;9.642;2023-08-08T05:41:58;12.20;99.90
11087;DHT22;5597;47.588;9.642;2023-08-08T05:44:24;12.20;99.90
11087;DHT22;5597;47.588;9.642;2023-08-08T05:46:49;12.30;99.90
11087;DHT22;5597;47.588;9.642;2023-08-08T05:49:15;12.30;99.90
11087;DHT22;5597;47.588;9.642;2023-08-08T05:51:41;12.30;99.90
11087;DHT22;5597;47.588;9.642;2023-08-08T05:54:06;12.40;99.90
11087;DHT22;5597;47.588;9.642;2023-08-08T05:56:36;12.50;99.90
11087;DHT22;5597;47.588;9.642;2023-08-08T05:59:05;12.60;99.90
11087;DHT22;5597;47.588;9.642;2023-08-08T06:01:31;12.70;99.90
11087;DHT22;5597;47.588;9.642;2023-08-08T06:03:58;12.80;99.90
11087;DHT22;5597;47.588;9.642;2023-08-08T06:06:25;12.90;99.90
11087;DHT22;5597;47.588;9.642;2023-08-08T06:08:51;13.00;99.90
11087;DHT22;5597;47.588;9.642;2023-08-08T06:11:17;13.10;99.90
11087;DHT22;5597;47.588;9.642;2023-08-08T06:13:43;13.20;99.90
11087;DHT22;5597;47.588;9.642;2023-08-08T06:16:08;13.30;99.90
11087;DHT22;5597;47.588;9.642;2023-08-08T06:18:35;13.40;99.90
11087;DHT22;5597;47.588;9.642;2023-08-08T06:21:01;13.50;99.90
11087;DHT22;5597;47.588;9.642;2023-08-08T06:23:27;13.50;99.90
11087;DHT22;5597;47.588;9.642;2023-08-08T06:25:53;13.70;99.90
11087;DHT22;5597;47.588;9.642;2023-08-08T06:28:19;13.80;99.90
11087;DHT22;5597;47.588;9.642;2023-08-08T06:30:45;13.80;99.90
11087;DHT22;5597;47.588;9.642;2023-08-08T06:33:10;13.90;99.90
11087;DHT22;5597;47.588;9.642;2023-08-08T06:35:36;14.00;99.90
11087;DHT22;5597;47.588;9.642;2023-08-08T06:38:02;14.10;99.90
11087;DHT22;5597;47.588;9.642;2023-08-08T06:40:28;14.10;99.90
11087;DHT22;5597;47.588;9.642;2023-08-08T06:42:54;14.30;99.90
11087;DHT22;5597;47.588;9.642;2023-08-08T06:45:20;14.40;99.90
11087;DHT22;5597;47.588;9.642;2023-08-08T06:47:46;14.60;99.90
11087;DHT22;5597;47.588;9.642;2023-08-08T06:50:12;14.70;99.90
11087;DHT22;5597;47.588;9.642;2023-08-08T06:52:39;14.90;99.90
11087;DHT22;5597;47.588;9.642;2023-08-08T06:55:05;15.00;99.90
11087;DHT22;5597;47.588;9.642;2023-08-08T06:57:33;15.20;99.90
11087;DHT22;5597;47.588;9.642;2023-08-08T06:59:59;15.40;99.90
11087;DHT22;5597;47.588;9.642;2023-08-08T07:02:25;15.50;99.90
11087;DHT22;5597;47.588;9.642;2023-08-08T07:04:50;15.70;99.90
11087;DHT22;5597;47.588;9.642;2023-08-08T07:07:17;15.80;99.90
11087;DHT22;5597;47.588;9.642;2023-08-08T07:09:43;15.80;99.90
11087;DHT22;5597;47.588;9.642;2023-08-08T07:12:09;15.90;99.90
11087;DHT22;5597;47.588;9.642;2023-08-08T07:14:35;16.00;99.90
11087;DHT22;5597;47.588;9.642;2023-08-08T07:17:00;16.10;99.90
11087;DHT22;5597;47.588;9.642;2023-08-08T07:19:28;16.20;99.90
11087;DHT22;5597;47.588;9.642;2023-08-08T07:21:54;16.30;99.90
11087;DHT22;5597;47.588;9.642;2023-08-08T07:24:20;16.40;99.90
11087;DHT22;5597;47.588;9.642;2023-08-08T07:26:46;16.40;99.90
11087;DHT22;5597;47.588;9.642;2023-08-08T07:29:12;16.50;99.90
11087;DHT22;5597;47.588;9.642;2023-08-08T07:31:37;16.60;99.90
11087;DHT22;5597;47.588;9.642;2023-08-08T07:34:03;16.80;99.90
11087;DHT22;5597;47.588;9.642;2023-08-08T07:36:29;16.90;99.90
11087;DHT22;5597;47.588;9.642;2023-08-08T07:38:54;17.10;99.90
11087;DHT22;5597;47.588;9.642;2023-08-08T07:41:26;17.10;99.90
11087;DHT22;5597;47.588;9.642;2023-08-08T07:43:52;17.20;99.90
11087;DHT22;5597;47.588;9.642;2023-08-08T07:46:18;17.30;99.90
11087;DHT22;5597;47.588;9.642;2023-08-08T07:48:43;17.40;99.90
11087;DHT22;5597;47.588;9.642;2023-08-08T07:51:09;17.50;99.90
11087;DHT22;5597;47.588;9.642;2023-08-08T07:53:35;17.60;99.90
11087;DHT22;5597;47.588;9.642;2023-08-08T07:56:00;17.60;99.90
11087;DHT22;5597;47.588;9.642;2023-08-08T07:58:26;17.60;99.90
11087;DHT22;5597;47.588;9.642;2023-08-08T08:00:53;17.60;99.90
11087;DHT22;5597;47.588;9.642;2023-08-08T08:03:19;17.70;99.90
11087;DHT22;5597;47.588;9.642;2023-08-08T08:05:45;17.70;99.90
11087;DHT22;5597;47.588;9.642;2023-08-08T08:08:11;17.70;99.90
11087;DHT22;5597;47.588;9.642;2023-08-08T08:10:36;17.70;99.90
11087;DHT22;5597;47.588;9.642;2023-08-08T08:13:02;17.70;99.90
11087;DHT22;5597;47.588;9.642;2023-08-08T08:15:28;17.80;99.90
11087;DHT22;5597;47.588;9.642;2023-08-08T08:17:56;17.80;99.90
11087;DHT22;5597;47.588;9.642;2023-08-08T08:20:24;17.90;99.90
11087;DHT22;5597;47.588;9.642;2023-08-08T08:22:50;18.00;99.90
11087;DHT22;5597;47.588;9.642;2023-08-08T08:25:16;18.00;99.90
11087;DHT22;5597;47.588;9.642;2023-08-08T08:27:41;18.10;99.90
11087;DHT22;5597;47.588;9.642;2023-08-08T08:30:08;18.20;99.90
11087;DHT22;5597;47.588;9.642;2023-08-08T08:32:35;18.20;99.90
11087;DHT22;5597;47.588;9.642;2023-08-08T08:35:05;18.30;99.90
11087;DHT22;5597;47.588;9.642;2023-08-08T08:37:32;18.30;99.90
11087;DHT22;5597;47.588;9.642;2023-08-08T08:39:57;18.40;99.90
11087;DHT22;5597;47.588;9.642;2023-08-08T08:42:24;18.50;99.90
11087;DHT22;5597;47.588;9.642;2023-08-08T08:44:50;18.60;99.90
11087;DHT22;5597;47.588;9.642;2023-08-08T08:47:18;18.60;99.90
11087;DHT22;5597;47.588;9.642;2023-08-08T08:49:45;18.70;99.90
11087;DHT22;5597;47.588;9.642;2023-08-08T08:52:12;18.80;99.90
11087;DHT22;5597;47.588;9.642;2023-08-08T08:54:38;19.00;99.90
11087;DHT22;5597;47.588;9.642;2023-08-08T08:57:04;19.10;99.90
11087;DHT22;5597;47.588;9.642;2023-08-08T08:59:29;19.20;99.90
11087;DHT22;5597;47.588;9.642;2023-08-08T09:01:56;19.30;99.90
11087;DHT22;5597;47.588;9.642;2023-08-08T09:04:22;19.40;99.90
11087;DHT22;5597;47.588;9.642;2023-08-08T09:06:49;19.50;99.90
11087;DHT22;5597;47.588;9.642;2023-08-08T09:09:15;19.80;99.90
11087;DHT22;5597;47.588;9.642;2023-08-08T09:11:52;20.00;99.90
11087;DHT22;5597;47.588;9.642;2023-08-08T09:14:24;20.20;99.90
11087;DHT22;5597;47.588;9.642;2023-08-08T09:16:52;20.30;99.90
11087;DHT22;5597;47.588;9.642;2023-08-08T09:19:23;20.50;99.90
11087;DHT22;5597;47.588;9.642;2023-08-08T09:21:50;20.50;99.90
11087;DHT22;5597;47.588;9.642;2023-08-08T09:24:17;20.60;99.90
11087;DHT22;5597;47.588;9.642;2023-08-08T09:26:44;20.60;99.90
11087;DHT22;5597;47.588;9.642;2023-08-08T09:29:14;20.70;99.90
11087;DHT22;5597;47.588;9.642;2023-08-08T09:31:40;20.90;99.90
11087;DHT22;5597;47.588;9.642;2023-08-08T09:34:06;21.00;99.90
11087;DHT22;5597;47.588;9.642;2023-08-08T09:36:33;21.10;99.90
11087;DHT22;5597;47.588;9.642;2023-08-08T09:38:59;21.20;99.90
11087;DHT22;5597;47.588;9.642;2023-08-08T09:41:25;21.20;99.90
11087;DHT22;5597;47.588;9.642;2023-08-08T09:43:52;21.30;99.90
11087;DHT22;5597;47.588;9.642;2023-08-08T09:46:19;21.30;99.90
11087;DHT22;5597;47.588;9.642;2023-08-08T09:48:45;21.30;99.90
11087;DHT22;5597;47.588;9.642;2023-08-08T09:51:12;21.30;99.90
11087;DHT22;5597;47.588;9.642;2023-08-08T09:53:39;21.40;99.90
11087;DHT22;5597;47.588;9.642;2023-08-08T09:56:08;21.40;99.90
11087;DHT22;5597;47.588;9.642;2023-08-08T09:58:34;21.50;99.90
11087;DHT22;5597;47.588;9.642;2023-08-08T10:01:00;21.60;99.90
11087;DHT22;5597;47.588;9.642;2023-08-08T10:03:26;21.70;99.90
11087;DHT22;5597;47.588;9.642;2023-08-08T10:05:52;21.80;99.90
11087;DHT22;5597;47.588;9.642;2023-08-08T10:08:18;21.90;99.90
11087;DHT22;5597;47.588;9.642;2023-08-08T10:10:46;21.90;99.90
11087;DHT22;5597;47.588;9.642;2023-08-08T10:13:20;21.90;99.90
11087;DHT22;5597;47.588;9.642;2023-08-08T10:15:46;21.90;99.90
11087;DHT22;5597;47.588;9.642;2023-08-08T10:18:13;22.10;99.90
11087;DHT22;5597;47.588;9.642;2023-08-08T10:20:40;22.30;99.90
11087;DHT22;5597;47.588;9.642;2023-08-08T10:23:07;22.50;99.90
11087;DHT22;5597;47.588;9.642;2023-08-08T10:25:33;22.60;99.90
11087;DHT22;5597;47.588;9.642;2023-08-08T10:28:08;22.80;99.90
11087;DHT22;5597;47.588;9.642;2023-08-08T10:30:44;23.00;99.90
11087;DHT22;5597;47.588;9.642;2023-08-08T10:33:24;23.30;99.90
11087;DHT22;5597;47.588;9.642;2023-08-08T10:38:19;23.70;99.90
11087;DHT22;5597;47.588;9.642;2023-08-08T10:40:47;23.80;99.90
11087;DHT22;5597;47.588;9.642;2023-08-08T10:43:13;23.90;99.90
11087;DHT22;5597;47.588;9.642;2023-08-08T10:45:41;24.00;99.90
11087;DHT22;5597;47.588;9.642;2023-08-08T10:48:10;24.10;99.90
11087;DHT22;5597;47.588;9.642;2023-08-08T10:50:42;24.00;99.90
11087;DHT22;5597;47.588;9.642;2023-08-08T10:53:09;23.90;99.90
11087;DHT22;5597;47.588;9.642;2023-08-08T10:55:38;23.90;99.90
11087;DHT22;5597;47.588;9.642;2023-08-08T10:58:13;23.90;99.90
11087;DHT22;5597;47.588;9.642;2023-08-08T11:00:45;24.10;99.90
11087;DHT22;5597;47.588;9.642;2023-08-08T11:03:11;24.10;99.80
11087;DHT22;5597;47.588;9.642;2023-08-08T11:05:37;24.00;99.90
11087;DHT22;5597;47.588;9.642;2023-08-08T11:08:05;24.00;99.90
11087;DHT22;5597;47.588;9.642;2023-08-08T11:10:40;24.00;99.90
11087;DHT22;5597;47.588;9.642;2023-08-08T11:13:07;24.00;99.90
11087;DHT22;5597;47.588;9.642;2023-08-08T11:15:34;24.20;99.90
11087;DHT22;5597;47.588;9.642;2023-08-08T11:18:01;24.30;99.90
11087;DHT22;5597;47.588;9.642;2023-08-08T11:20:32;24.10;99.90
11087;DHT22;5597;47.588;9.642;2023-08-08T11:22:59;23.90;99.90
11087;DHT22;5597;47.588;9.642;2023-08-08T11:25:28;23.80;99.90
11087;DHT22;5597;47.588;9.642;2023-08-08T11:27:56;24.00;99.90
11087;DHT22;5597;47.588;9.642;2023-08-08T11:30:23;24.10;99.90
11087;DHT22;5597;47.588;9.642;2023-08-08T11:32:50;24.10;99.90
11087;DHT22;5597;47.588;9.642;2023-08-08T11:35:22;24.00;99.90
11087;DHT22;5597;47.588;9.642;2023-08-08T11:37:52;24.10;99.60
11087;DHT22;5597;47.588;9.642;2023-08-08T11:40:18;24.00;99.20
11087;DHT22;5597;47.588;9.642;2023-08-08T11:42:45;23.80;99.10
11087;DHT22;5597;47.588;9.642;2023-08-08T11:45:12;23.50;99.90
11087;DHT22;5597;47.588;9.642;2023-08-08T11:47:41;23.40;99.90
11087;DHT22;5597;47.588;9.642;2023-08-08T11:50:08;23.30;99.90
11087;DHT22;5597;47.588;9.642;2023-08-08T11:52:42;23.20;99.90
11087;DHT22;5597;47.588;9.642;2023-08-08T11:55:12;23.20;99.90
11087;DHT22;5597;47.588;9.642;2023-08-08T11:57:39;23.20;99.90
11087;DHT22;5597;47.588;9.642;2023-08-08T12:00:09;23.20;99.90
11087;DHT22;5597;47.588;9.642;2023-08-08T12:02:38;23.20;99.90
11087;DHT22;5597;47.588;9.642;2023-08-08T12:05:13;23.20;99.90
11087;DHT22;5597;47.588;9.642;2023-08-08T12:07:40;23.50;99.90
11087;DHT22;5597;47.588;9.642;2023-08-08T12:10:20;23.60;99.90
11087;DHT22;5597;47.588;9.642;2023-08-08T12:12:46;23.70;99.90
11087;DHT22;5597;47.588;9.642;2023-08-08T12:15:13;23.70;99.90
11087;DHT22;5597;47.588;9.642;2023-08-08T12:17:39;23.70;99.90
11087;DHT22;5597;47.588;9.642;2023-08-08T12:20:06;23.90;99.90
11087;DHT22;5597;47.588;9.642;2023-08-08T12:22:33;24.20;99.90
11087;DHT22;5597;47.588;9.642;2023-08-08T12:24:59;24.80;99.90
11087;DHT22;5597;47.588;9.642;2023-08-08T12:27:24;25.20;99.30
11087;DHT22;5597;47.588;9.642;2023-08-08T12:29:50;25.40;98.50
11087;DHT22;5597;47.588;9.642;2023-08-08T12:32:20;25.80;99.30
11087;DHT22;5597;47.588;9.642;2023-08-08T12:34:49;26.20;99.80
11087;DHT22;5597;47.588;9.642;2023-08-08T12:37:15;26.50;98.40
11087;DHT22;5597;47.588;9.642;2023-08-08T12:39:41;26.70;95.10
11087;DHT22;5597;47.588;9.642;2023-08-08T12:42:06;26.40;94.10
11087;DHT22;5597;47.588;9.642;2023-08-08T12:44:32;25.90;93.80
11087;DHT22;5597;47.588;9.642;2023-08-08T12:46:58;25.60;95.70
11087;DHT22;5597;47.588;9.642;2023-08-08T12:49:23;25.50;95.00
11087;DHT22;5597;47.588;9.642;2023-08-08T12:51:50;25.50;95.00
11087;DHT22;5597;47.588;9.642;2023-08-08T12:54:16;25.50;94.30
11087;DHT22;5597;47.588;9.642;2023-08-08T12:56:42;25.20;94.30
11087;DHT22;5597;47.588;9.642;2023-08-08T12:59:08;24.90;94.30
11087;DHT22;5597;47.588;9.642;2023-08-08T13:01:34;24.70;95.00
11087;DHT22;5597;47.588;9.642;2023-08-08T13:04:00;24.70;93.80
11087;DHT22;5597;47.588;9.642;2023-08-08T13:06:26;25.00;93.60
11087;DHT22;5597;47.588;9.642;2023-08-08T13:08:51;25.40;95.80
11087;DHT22;5597;47.588;9.642;2023-08-08T13:11:17;25.90;93.40
11087;DHT22;5597;47.588;9.642;2023-08-08T13:13:42;26.10;94.90
11087;DHT22;5597;47.588;9.642;2023-08-08T13:16:08;26.30;95.10
11087;DHT22;5597;47.588;9.642;2023-08-08T13:18:36;26.80;94.60
11087;DHT22;5597;47.588;9.642;2023-08-08T13:21:02;27.30;94.90
11087;DHT22;5597;47.588;9.642;2023-08-08T13:23:28;27.70;91.00
11087;DHT22;5597;47.588;9.642;2023-08-08T13:25:54;27.60;88.40
11087;DHT22;5597;47.588;9.642;2023-08-08T13:28:19;27.40;90.40
11087;DHT22;5597;47.588;9.642;2023-08-08T13:30:45;27.50;91.00
11087;DHT22;5597;47.588;9.642;2023-08-08T13:33:11;27.70;92.10
11087;DHT22;5597;47.588;9.642;2023-08-08T13:35:37;27.90;89.50
11087;DHT22;5597;47.588;9.642;2023-08-08T13:38:03;28.20;90.90
11087;DHT22;5597;47.588;9.642;2023-08-08T13:40:29;28.50;90.10
11087;DHT22;5597;47.588;9.642;2023-08-08T13:42:54;28.50;85.40
11087;DHT22;5597;47.588;9.642;2023-08-08T13:45:23;28.50;86.20
11087;DHT22;5597;47.588;9.642;2023-08-08T13:47:49;28.60;84.40
11087;DHT22;5597;47.588;9.642;2023-08-08T13:50:15;28.80;84.10
11087;DHT22;5597;47.588;9.642;2023-08-08T13:52:41;28.80;79.10
11087;DHT22;5597;47.588;9.642;2023-08-08T13:55:08;28.70;79.50
11087;DHT22;5597;47.588;9.642;2023-08-08T13:57:34;28.40;80.30
11087;DHT22;5597;47.588;9.642;2023-08-08T14:00:05;28.40;86.20
11087;DHT22;5597;47.588;9.642;2023-08-08T14:02:32;28.60;82.70
11087;DHT22;5597;47.588;9.642;2023-08-08T14:04:58;28.70;81.60
11087;DHT22;5597;47.588;9.642;2023-08-08T14:07:24;28.80;84.20
11087;DHT22;5597;47.588;9.642;2023-08-08T14:09:50;29.00;80.10
11087;DHT22;5597;47.588;9.642;2023-08-08T14:12:15;29.10;80.80
11087;DHT22;5597;47.588;9.642;2023-08-08T14:14:42;29.00;79.80
11087;DHT22;5597;47.588;9.642;2023-08-08T14:17:07;28.90;79.50
11087;DHT22;5597;47.588;9.642;2023-08-08T14:19:33;28.90;79.30
11087;DHT22;5597;47.588;9.642;2023-08-08T14:21:59;28.80;80.40
11087;DHT22;5597;47.588;9.642;2023-08-08T14:24:25;28.90;77.30
11087;DHT22;5597;47.588;9.642;2023-08-08T14:26:50;28.90;78.00
11087;DHT22;5597;47.588;9.642;2023-08-08T14:29:16;28.90;78.60
11087;DHT22;5597;47.588;9.642;2023-08-08T14:31:42;29.00;78.10
11087;DHT22;5597;47.588;9.642;2023-08-08T14:34:08;28.90;78.10
11087;DHT22;5597;47.588;9.642;2023-08-08T14:36:34;28.80;79.40
11087;DHT22;5597;47.588;9.642;2023-08-08T14:38:59;28.70;77.30
11087;DHT22;5597;47.588;9.642;2023-08-08T14:41:25;28.60;77.90
11087;DHT22;5597;47.588;9.642;2023-08-08T14:43:50;28.70;79.10
11087;DHT22;5597;47.588;9.642;2023-08-08T14:46:16;28.90;78.00
11087;DHT22;5597;47.588;9.642;2023-08-08T14:48:42;29.10;79.30
11087;DHT22;5597;47.588;9.642;2023-08-08T14:51:07;29.30;78.80
11087;DHT22;5597;47.588;9.642;2023-08-08T14:53:33;29.50;78.70
11087;DHT22;5597;47.588;9.642;2023-08-08T14:55:59;29.60;76.10
11087;DHT22;5597;47.588;9.642;2023-08-08T14:58:25;29.50;75.80
11087;DHT22;5597;47.588;9.642;2023-08-08T15:00:51;29.50;75.20
11087;DHT22;5597;47.588;9.642;2023-08-08T15:03:17;29.60;75.00
11087;DHT22;5597;47.588;9.642;2023-08-08T15:05:44;29.60;75.30
11087;DHT22;5597;47.588;9.642;2023-08-08T15:08:11;29.70;76.00
11087;DHT22;5597;47.588;9.642;2023-08-08T15:10:36;29.80;73.20
11087;DHT22;5597;47.588;9.642;2023-08-08T15:13:02;29.70;73.30
11087;DHT22;5597;47.588;9.642;2023-08-08T15:15:28;29.60;72.50
11087;DHT22;5597;47.588;9.642;2023-08-08T15:17:55;29.50;72.10
11087;DHT22;5597;47.588;9.642;2023-08-08T15:20:21;29.50;72.80
11087;DHT22;5597;47.588;9.642;2023-08-08T15:22:46;29.60;72.50
11087;DHT22;5597;47.588;9.642;2023-08-08T15:25:12;29.60;73.30
11087;DHT22;5597;47.588;9.642;2023-08-08T15:27:38;29.60;73.70
11087;DHT22;5597;47.588;9.642;2023-08-08T15:30:04;29.60;71.30
11087;DHT22;5597;47.588;9.642;2023-08-08T15:32:30;29.50;73.90
11087;DHT22;5597;47.588;9.642;2023-08-08T15:34:56;29.50;75.00
11087;DHT22;5597;47.588;9.642;2023-08-08T15:37:21;29.50;75.50
11087;DHT22;5597;47.588;9.642;2023-08-08T15:39:47;29.60;76.10
11087;DHT22;5597;47.588;9.642;2023-08-08T15:42:13;29.60;74.10